createdAt,value
2022-11-24T00:02:09.444Z,93872.41
2022-11-24T00:04:52.909Z,93877.81
2022-11-24T00:07:36.007Z,93876.88
2022-11-24T00:10:19.108Z,93881.03
2022-11-24T00:13:02.101Z,93876.47
2022-11-24T00:15:45.260Z,93882.63
2022-11-24T00:18:29.629Z,93884.84
2022-11-24T00:21:13.276Z,93896.50
2022-11-24T00:23:56.282Z,93897.50
2022-11-24T00:26:39.328Z,93894.09
2022-11-24T00:29:22.348Z,93892.03
2022-11-24T00:32:06.560Z,93903.13
2022-11-24T00:34:50.938Z,93911.53
2022-11-24T00:37:33.942Z,93910.53
2022-11-24T00:40:17.280Z,93902.41
2022-11-24T00:43:00.575Z,93898.88
2022-11-24T00:45:44.014Z,93897.16
2022-11-24T00:48:27.209Z,93895.22
2022-11-24T00:51:14.671Z,93909.34
2022-11-24T00:53:57.790Z,93916.41
2022-11-24T00:56:40.788Z,93920.63
2022-11-24T00:59:23.767Z,93907.75
2022-11-24T01:02:07.526Z,93905.81
2022-11-24T01:04:50.574Z,93920.72
2022-11-24T01:07:35.032Z,93910.84
2022-11-24T01:10:18.370Z,93908.47
2022-11-24T01:13:01.638Z,93912.75
2022-11-24T01:15:44.695Z,93916.91
2022-11-24T01:18:27.749Z,93910.91
2022-11-24T01:21:10.927Z,93912.75
2022-11-24T01:23:55.316Z,93921.13
2022-11-24T01:26:39.077Z,93914.53
2022-11-24T01:29:22.246Z,93905.81
2022-11-24T01:32:05.717Z,93903.44
2022-11-24T01:34:49.192Z,93898.09
2022-11-24T01:37:32.183Z,93900.25
2022-11-24T01:40:17.187Z,93896.38
2022-11-24T01:43:00.176Z,93898.94
2022-11-24T01:45:43.290Z,93904.09
2022-11-24T01:48:29.845Z,93905.53
2022-11-24T01:51:16.159Z,93914.59
2022-11-24T01:54:03.829Z,93915.84
2022-11-24T01:56:52.789Z,93914.03
2022-11-24T01:59:36.121Z,93910.53
2022-11-24T02:02:20.569Z,93916.84
2022-11-24T02:05:07.803Z,93916.97
2022-11-24T02:07:53.454Z,93909.25
2022-11-24T02:10:37.201Z,93909.25
2022-11-24T02:13:22.912Z,93907.69
2022-11-24T02:16:08.001Z,93914.91
2022-11-24T02:18:51.090Z,93913.47
2022-11-24T02:21:34.156Z,93915.53
2022-11-24T02:24:23.278Z,93918.56
2022-11-24T02:27:07.887Z,93919.69
2022-11-24T02:29:51.251Z,93919.69
2022-11-24T02:32:34.759Z,93920.13
2022-11-24T02:35:17.798Z,93907.09
2022-11-24T02:38:00.974Z,93922.13
2022-11-24T02:40:47.608Z,93923.44
2022-11-24T02:43:35.360Z,93926.50
2022-11-24T02:46:18.515Z,93925.06
2022-11-24T02:49:01.553Z,93920.69
2022-11-24T02:51:44.524Z,93933.28
2022-11-24T02:54:27.844Z,93926.22
2022-11-24T02:57:11.540Z,93923.41
2022-11-24T02:59:55.937Z,93920.81
2022-11-24T03:02:39.046Z,93915.25
2022-11-24T03:05:22.204Z,93915.53
2022-11-24T03:08:05.617Z,93920.97
2022-11-24T03:10:49.238Z,93922.97
2022-11-24T03:13:32.229Z,93922.84
2022-11-24T03:16:16.616Z,93930.72
2022-11-24T03:19:00.097Z,93932.88
2022-11-24T03:21:43.090Z,93930.13
2022-11-24T03:24:26.133Z,93932.88
2022-11-24T03:27:09.221Z,93942.22
2022-11-24T03:29:52.341Z,93941.69
2022-11-24T03:32:36.681Z,93948.94
2022-11-24T03:35:19.705Z,93952.81
2022-11-24T03:38:02.822Z,93943.97
2022-11-24T03:40:45.836Z,93956.19
2022-11-24T03:43:28.860Z,93955.75
2022-11-24T03:46:12.215Z,93972.66
2022-11-24T03:48:56.738Z,93955.28
2022-11-24T03:51:39.810Z,93963.28
2022-11-24T03:54:22.792Z,93972.91
2022-11-24T03:57:05.837Z,93974.97
2022-11-24T03:59:48.885Z,93980.59
2022-11-24T04:02:31.995Z,93987.66
2022-11-24T04:05:16.592Z,93983.16
2022-11-24T04:08:02.997Z,93984.75
2022-11-24T04:10:46.016Z,93996.94
2022-11-24T04:13:28.731Z,93988.88
2022-11-24T04:16:11.800Z,93980.69
2022-11-24T04:18:55.088Z,93985.69
2022-11-24T04:21:39.490Z,93989.88
2022-11-24T04:24:22.544Z,93994.72
2022-11-24T04:27:05.620Z,93988.88
2022-11-24T04:29:48.635Z,93997.03
2022-11-24T04:32:31.668Z,94002.63
2022-11-24T04:35:15.145Z,94003.25
2022-11-24T04:38:03.448Z,94008.84
2022-11-24T04:40:46.454Z,94007.56
2022-11-24T04:43:29.510Z,94008.56
2022-11-24T04:46:12.991Z,94008.28
2022-11-24T04:48:56.054Z,94016.72
2022-11-24T04:51:39.324Z,94018.19
2022-11-24T04:54:23.950Z,94009.00
2022-11-24T04:57:06.988Z,94026.41
2022-11-24T04:59:50.765Z,94027.47
2022-11-24T05:02:33.788Z,94026.31
2022-11-24T05:05:16.896Z,94027.13
2022-11-24T05:08:00.653Z,94030.47
2022-11-24T05:10:45.334Z,94021.16
2022-11-24T05:13:28.383Z,94034.97
2022-11-24T05:16:11.782Z,94031.75
2022-11-24T05:18:54.838Z,94041.09
2022-11-24T05:21:38.096Z,94039.19
2022-11-24T05:24:21.118Z,94042.78
2022-11-24T05:27:05.486Z,94031.25
2022-11-24T05:29:48.610Z,94035.75
2022-11-24T05:32:31.721Z,94035.97
2022-11-24T05:35:15.130Z,94039.63
2022-11-24T05:37:59.644Z,94032.59
2022-11-24T05:40:43.020Z,94046.56
2022-11-24T05:43:27.589Z,94055.66
2022-11-24T05:46:10.655Z,94053.09
2022-11-24T05:48:53.707Z,94054.22
2022-11-24T05:51:36.773Z,94053.94
2022-11-24T05:54:19.806Z,94056.19
2022-11-24T05:57:02.843Z,94051.91
2022-11-24T05:59:47.509Z,94049.34
2022-11-24T06:02:30.751Z,94057.72
2022-11-24T06:05:13.848Z,94063.97
2022-11-24T06:07:57.317Z,94055.22
2022-11-24T06:10:40.429Z,94066.94
2022-11-24T06:13:23.516Z,94075.53
2022-11-24T06:16:08.469Z,94067.91
2022-11-24T06:18:51.498Z,94069.06
2022-11-24T06:21:34.483Z,94066.59
2022-11-24T06:24:17.552Z,94072.56
2022-11-24T06:27:00.616Z,94077.75
2022-11-24T06:29:43.799Z,94081.28
2022-11-24T06:32:28.341Z,94093.41
2022-11-24T06:35:11.392Z,94082.66
2022-11-24T06:37:54.499Z,94092.31
2022-11-24T06:40:37.577Z,94098.97
2022-11-24T06:43:20.643Z,94102.31
2022-11-24T06:46:04.743Z,94108.25
2022-11-24T06:48:49.424Z,94114.47
2022-11-24T06:51:32.552Z,94122.22
2022-11-24T06:54:17.457Z,94124.06
2022-11-24T06:57:01.319Z,94118.28
2022-11-24T06:59:44.382Z,94129.19
2022-11-24T07:02:27.464Z,94142.50
2022-11-24T07:05:12.050Z,94141.81
2022-11-24T07:07:55.424Z,94141.56
2022-11-24T07:10:38.753Z,94138.13
2022-11-24T07:13:21.891Z,94148.63
2022-11-24T07:16:13.171Z,94152.75
2022-11-24T07:18:56.444Z,94151.66
2022-11-24T07:21:41.116Z,94159.31
2022-11-24T07:24:24.215Z,94163.28
2022-11-24T07:27:07.182Z,94158.09
2022-11-24T07:29:50.201Z,94152.94
2022-11-24T07:32:33.164Z,94158.84
2022-11-24T07:35:16.359Z,94169.28
2022-11-24T07:38:00.874Z,94182.91
2022-11-24T07:40:44.106Z,94184.03
2022-11-24T07:43:27.116Z,94177.69
2022-11-24T07:46:13.654Z,94187.84
2022-11-24T07:48:56.846Z,94183.41
2022-11-24T07:51:39.888Z,94181.09
2022-11-24T07:54:24.353Z,94181.06
2022-11-24T07:57:07.354Z,94186.38
2022-11-24T07:59:50.402Z,94186.94
2022-11-24T08:02:35.767Z,94206.75
2022-11-24T08:05:18.876Z,94200.94
2022-11-24T08:08:01.976Z,94213.56
2022-11-24T08:10:46.412Z,94215.78
2022-11-24T08:13:29.524Z,94213.50
2022-11-24T08:16:15.124Z,94224.03
2022-11-24T08:18:58.314Z,94222.94
2022-11-24T08:21:41.346Z,94216.38
2022-11-24T08:24:24.466Z,94226.34
2022-11-24T08:27:08.861Z,94227.19
2022-11-24T08:29:51.928Z,94242.28
2022-11-24T08:32:35.014Z,94247.47
2022-11-24T08:35:18.266Z,94251.16
2022-11-24T08:38:04.789Z,94256.75
2022-11-24T08:40:48.055Z,94254.31
2022-11-24T08:43:32.973Z,94259.69
2022-11-24T08:46:17.934Z,94259.13
2022-11-24T08:49:01.290Z,94266.63
2022-11-24T08:51:44.405Z,94269.66
2022-11-24T08:54:28.077Z,94274.59
2022-11-24T08:57:11.191Z,94274.25
2022-11-24T08:59:55.672Z,94274.56
2022-11-24T09:02:38.880Z,94281.41
2022-11-24T09:05:50.278Z,94276.97
2022-11-24T09:08:24.992Z,94286.84
2022-11-24T09:11:09.840Z,94291.22
2022-11-24T09:13:53.292Z,94292.94
2022-11-24T09:16:38.056Z,94293.00
2022-11-24T09:19:21.179Z,94289.22
2022-11-24T09:22:04.960Z,94292.97
2022-11-24T09:24:48.030Z,94298.75
2022-11-24T09:27:31.170Z,94298.44
2022-11-24T09:30:15.088Z,94299.69
2022-11-24T09:32:59.528Z,94297.69
2022-11-24T09:35:42.650Z,94292.88
2022-11-24T09:38:25.845Z,94301.00
2022-11-24T09:41:48.758Z,94293.53
2022-11-24T09:45:04.216Z,94301.06
2022-11-24T09:47:59.630Z,94300.53
2022-11-24T09:50:47.258Z,94296.84
2022-11-24T09:53:35.763Z,94303.16
2022-11-24T09:56:22.432Z,94309.22
2022-11-24T09:59:11.984Z,94307.91
2022-11-24T10:01:55.933Z,94306.44
2022-11-24T10:04:43.347Z,94315.34
2022-11-24T10:07:31.957Z,94311.13
2022-11-24T10:10:24.525Z,94321.38
2022-11-24T10:13:26.717Z,94311.63
2022-11-24T10:16:19.557Z,94320.06
2022-11-24T10:19:13.109Z,94314.63
2022-11-24T10:22:07.492Z,94315.56
2022-11-24T10:25:09.307Z,94321.66
2022-11-24T10:28:00.009Z,94318.28
2022-11-24T10:30:43.791Z,94332.00
2022-11-24T10:33:30.800Z,94328.19
2022-11-24T10:36:20.544Z,94325.59
2022-11-24T10:39:12.310Z,94315.94
2022-11-24T10:42:02.629Z,94323.94
2022-11-24T10:44:45.786Z,94322.81
2022-11-24T10:47:29.695Z,94332.84
2022-11-24T10:50:21.687Z,94325.06
2022-11-24T10:53:15.758Z,94329.69
2022-11-24T10:56:01.076Z,94325.56
2022-11-24T10:58:45.615Z,94314.63
2022-11-24T11:01:33.377Z,94327.38
2022-11-24T11:04:21.093Z,94327.41
2022-11-24T11:07:19.414Z,94314.03
2022-11-24T11:10:23.264Z,94314.88
2022-11-24T11:13:25.752Z,94318.44
2022-11-24T11:16:25.599Z,94331.22
2022-11-24T11:19:48.474Z,94332.13
2022-11-24T11:22:34.135Z,94327.06
2022-11-24T11:25:23.437Z,94329.66
2022-11-24T11:28:23.044Z,94328.19
2022-11-24T11:31:18.032Z,94330.25
2022-11-24T11:34:22.079Z,94331.22
2022-11-24T11:37:07.838Z,94330.31
2022-11-24T11:39:52.413Z,94323.84
2022-11-24T11:43:01.917Z,94327.41
2022-11-24T11:45:47.733Z,94330.34
2022-11-24T11:48:42.425Z,94327.06
2022-11-24T11:51:43.282Z,94331.94
2022-11-24T11:54:43.410Z,94332.88
2022-11-24T11:57:37.694Z,94327.56
2022-11-24T12:00:22.163Z,94328.56
2022-11-24T12:03:50.003Z,94342.19
2022-11-24T12:06:53.302Z,94337.19
2022-11-24T12:09:51.525Z,94345.38
2022-11-24T12:13:08.451Z,94360.59
2022-11-24T12:15:56.118Z,94363.19
2022-11-24T12:18:57.561Z,94358.88
2022-11-24T12:21:52.138Z,94349.84
2022-11-24T12:24:45.921Z,94358.50
2022-11-24T12:27:40.056Z,94355.22
2022-11-24T12:30:24.019Z,94354.16
2022-11-24T12:33:23.928Z,94358.25
2022-11-24T12:36:14.977Z,94359.94
2022-11-24T12:39:06.808Z,94368.69
2022-11-24T12:42:01.868Z,94365.81
2022-11-24T12:44:59.951Z,94364.97
2022-11-24T12:48:06.987Z,94370.84
2022-11-24T12:50:52.802Z,94375.34
2022-11-24T12:53:38.649Z,94369.69
2022-11-24T12:56:30.851Z,94373.31
2022-11-24T12:59:23.853Z,94372.56
2022-11-24T13:02:22.264Z,94373.34
2022-11-24T13:05:20.208Z,94372.31
2022-11-24T13:08:05.887Z,94367.25
2022-11-24T13:14:00.767Z,94372.34
2022-11-24T13:20:16.003Z,94377.16
2022-11-24T13:23:02.762Z,94367.53
2022-11-24T13:26:15.920Z,94369.75
2022-11-24T13:29:18.373Z,94374.69
2022-11-24T13:32:52.851Z,94380.84
2022-11-24T13:35:35.924Z,94376.66
2022-11-24T13:38:40.901Z,94389.00
2022-11-24T13:42:10.332Z,94378.00
2022-11-24T13:49:02.428Z,94390.31
2022-11-24T13:51:45.860Z,94386.16
2022-11-24T13:54:30.102Z,94376.59
2022-11-24T13:57:34.435Z,94384.69
2022-11-24T14:00:21.616Z,94394.69
2022-11-24T14:03:14.587Z,94398.78
2022-11-24T14:06:00.525Z,94402.53
2022-11-24T14:08:47.028Z,94406.69
2022-11-24T14:11:30.409Z,94414.69
2022-11-24T14:14:22.947Z,94421.25
2022-11-24T14:17:24.365Z,94426.09
2022-11-24T14:20:18.404Z,94434.84
2022-11-24T14:23:03.084Z,94428.94
2022-11-24T14:25:50.322Z,94429.94
2022-11-24T14:28:33.496Z,94424.34
2022-11-24T14:31:23.006Z,94429.53
2022-11-24T14:34:16.595Z,94427.72
2022-11-24T14:37:01.654Z,94434.78
2022-11-24T14:39:46.255Z,94425.16
2022-11-24T14:42:29.646Z,94425.22
2022-11-24T14:45:19.556Z,94425.25
2022-11-24T14:48:02.784Z,94433.38
2022-11-24T14:50:46.005Z,94423.94
2022-11-24T14:53:29.299Z,94423.50
2022-11-24T14:56:24.405Z,94425.50
2022-11-24T14:59:23.253Z,94422.72
2022-11-24T15:02:40.613Z,94432.91
2022-11-24T15:05:25.985Z,94432.69
2022-11-24T15:08:14.436Z,94448.25
2022-11-24T15:11:00.882Z,94440.84
2022-11-24T15:13:55.228Z,94447.06
2022-11-24T15:16:41.292Z,94447.84
2022-11-24T15:19:29.644Z,94451.75
2022-11-24T15:22:38.060Z,94464.34
2022-11-24T15:25:33.749Z,94471.91
2022-11-24T15:28:17.063Z,94471.91
2022-11-24T15:31:04.063Z,94466.69
2022-11-24T15:33:47.210Z,94473.03
2022-11-24T15:36:30.308Z,94481.13
2022-11-24T15:39:13.405Z,94476.38
2022-11-24T15:41:56.558Z,94480.53
2022-11-24T15:44:39.639Z,94486.50
2022-11-24T15:47:24.236Z,94488.78
2022-11-24T15:50:08.742Z,94476.63
2022-11-24T15:52:51.983Z,94474.56
2022-11-24T15:55:35.833Z,94450.44
2022-11-24T15:58:18.998Z,94486.41
2022-11-24T16:01:02.102Z,94490.06
2022-11-24T16:03:48.167Z,94491.34
2022-11-24T16:06:32.243Z,94496.34
2022-11-24T16:09:17.329Z,94500.22
2022-11-24T16:12:00.504Z,94500.91
2022-11-24T16:14:43.716Z,94506.13
2022-11-24T16:17:26.962Z,94503.41
2022-11-24T16:20:12.647Z,94506.13
2022-11-24T16:22:56.115Z,94491.47
2022-11-24T16:25:39.308Z,94500.22
2022-11-24T16:28:22.480Z,94500.06
2022-11-24T16:31:05.626Z,94503.31
2022-11-24T16:33:48.821Z,94496.75
2022-11-24T16:36:33.334Z,94509.06
2022-11-24T16:39:16.473Z,94497.06
2022-11-24T16:41:59.505Z,94499.47
2022-11-24T16:44:42.735Z,94498.00
2022-11-24T16:47:25.833Z,94514.28
2022-11-24T16:50:10.517Z,94512.13
2022-11-24T16:52:54.939Z,94510.34
2022-11-24T16:55:37.992Z,94513.47
2022-11-24T16:58:21.037Z,94504.56
2022-11-24T17:01:05.337Z,94503.94
2022-11-24T17:03:48.562Z,94503.72
2022-11-24T17:06:33.854Z,94506.22
2022-11-24T17:09:18.920Z,94502.16
2022-11-24T17:12:02.005Z,94499.19
2022-11-24T17:15:03.118Z,94513.09
2022-11-24T17:18:16.300Z,94510.09
2022-11-24T17:20:51.164Z,94504.25
2022-11-24T17:23:34.413Z,94503.91
2022-11-24T17:26:19.152Z,94510.97
2022-11-24T17:29:02.232Z,94507.38
2022-11-24T17:31:45.373Z,94508.22
2022-11-24T17:34:28.487Z,94509.81
2022-11-24T17:37:11.538Z,94504.28
2022-11-24T17:40:20.370Z,94514.44
2022-11-24T17:43:00.762Z,94503.31
2022-11-24T17:45:43.828Z,94504.16
2022-11-24T17:48:26.985Z,94509.91
2022-11-24T17:51:13.931Z,94513.53
2022-11-24T17:53:57.394Z,94507.16
2022-11-24T17:56:42.706Z,94503.41
2022-11-24T17:59:27.370Z,94509.50
2022-11-24T18:02:11.608Z,94506.13
2022-11-24T18:04:54.713Z,94510.66
2022-11-24T18:07:37.901Z,94495.19
2022-11-24T18:10:21.111Z,94509.06
2022-11-24T18:13:04.267Z,94508.91
2022-11-24T18:15:48.637Z,94500.72
2022-11-24T18:18:36.529Z,94507.88
2022-11-24T18:21:22.347Z,94502.38
2022-11-24T18:24:05.767Z,94505.34
2022-11-24T18:26:51.334Z,94524.34
2022-11-24T18:29:34.517Z,94503.34
2022-11-24T18:32:19.064Z,94515.44
2022-11-24T18:35:02.123Z,94523.75
2022-11-24T18:37:45.181Z,94513.44
2022-11-24T18:40:28.281Z,94510.09
2022-11-24T18:43:11.311Z,94511.88
2022-11-24T18:45:55.205Z,94518.59
2022-11-24T18:48:40.065Z,94506.13
2022-11-24T18:51:23.654Z,94510.53
2022-11-24T18:54:06.828Z,94506.34
2022-11-24T18:56:50.009Z,94518.84
2022-11-24T18:59:33.077Z,94509.72
2022-11-24T19:02:16.236Z,94518.22
2022-11-24T19:05:00.818Z,94522.06
2022-11-24T19:07:44.306Z,94524.84
2022-11-24T19:10:27.423Z,94517.84
2022-11-24T19:13:10.448Z,94530.50
2022-11-24T19:15:53.623Z,94522.38
2022-11-24T19:18:36.716Z,94520.22
2022-11-24T19:21:21.449Z,94521.41
2022-11-24T19:24:05.824Z,94517.50
2022-11-24T19:26:49.032Z,94522.63
2022-11-24T19:29:32.273Z,94535.75
2022-11-24T19:32:16.946Z,94533.69
2022-11-24T19:35:00.252Z,94535.91
2022-11-24T19:37:45.036Z,94543.66
2022-11-24T19:40:28.120Z,94543.25
2022-11-24T19:43:11.480Z,94546.22
2022-11-24T19:45:54.669Z,94553.53
2022-11-24T19:48:39.099Z,94550.78
2022-11-24T19:51:25.714Z,94550.16
2022-11-24T19:54:12.971Z,94550.78
2022-11-24T19:56:56.636Z,94559.94
2022-11-24T19:59:39.765Z,94559.94
2022-11-24T20:02:22.862Z,94562.59
2022-11-24T20:05:06.385Z,94573.66
2022-11-24T20:07:49.719Z,94574.03
2022-11-24T20:10:34.311Z,94570.69
2022-11-24T20:13:17.393Z,94581.75
2022-11-24T20:16:04.953Z,94579.78
2022-11-24T20:18:48.969Z,94584.13
2022-11-24T20:21:32.756Z,94584.34
2022-11-24T20:24:17.649Z,94577.19
2022-11-24T20:27:03.188Z,94586.53
2022-11-24T20:29:47.102Z,94582.31
2022-11-24T20:32:30.252Z,94578.13
2022-11-24T20:35:18.020Z,94578.16
2022-11-24T20:38:01.514Z,94586.50
2022-11-24T20:40:44.515Z,94584.09
2022-11-24T20:43:31.343Z,94587.09
2022-11-24T20:46:19.436Z,94590.06
2022-11-24T20:49:03.969Z,94594.84
2022-11-24T20:51:48.186Z,94593.84
2022-11-24T20:54:31.347Z,94591.84
2022-11-24T20:57:14.512Z,94594.09
2022-11-24T20:59:58.966Z,94602.63
2022-11-24T21:02:42.105Z,94595.50
2022-11-24T21:05:25.365Z,94601.44
2022-11-24T21:08:08.447Z,94600.44
2022-11-24T21:10:56.050Z,94599.31
2022-11-24T21:13:40.062Z,94607.03
2022-11-24T21:16:26.594Z,94600.09
2022-11-24T21:19:12.475Z,94606.81
2022-11-24T21:21:55.545Z,94611.00
2022-11-24T21:24:38.590Z,94607.63
2022-11-24T21:27:21.616Z,94615.59
2022-11-24T21:30:05.124Z,94610.47
2022-11-24T21:32:49.749Z,94614.81
2022-11-24T21:35:36.098Z,94614.03
2022-11-24T21:38:19.583Z,94615.22
2022-11-24T21:41:03.280Z,94615.44
2022-11-24T21:43:46.831Z,94610.09
2022-11-24T21:46:38.971Z,94616.81
2022-11-24T21:49:26.826Z,94617.63
2022-11-24T21:52:09.865Z,94623.16
2022-11-24T21:54:52.931Z,94622.97
2022-11-24T21:57:35.976Z,94627.91
2022-11-24T22:00:20.214Z,94619.00
2022-11-24T22:03:03.219Z,94616.03
2022-11-24T22:05:55.527Z,94615.25
2022-11-24T22:08:38.587Z,94618.78
2022-11-24T22:11:23.772Z,94610.69
2022-11-24T22:14:06.825Z,94621.94
2022-11-24T22:16:49.983Z,94608.88
2022-11-24T22:19:33.282Z,94609.88
2022-11-24T22:22:17.772Z,94618.03
2022-11-24T22:25:00.848Z,94612.88
2022-11-24T22:27:44.136Z,94621.97
2022-11-24T22:30:27.295Z,94616.03
2022-11-24T22:33:10.387Z,94623.53
2022-11-24T22:35:59.932Z,94622.56
2022-11-24T22:38:44.790Z,94632.69
2022-11-24T22:41:27.952Z,94631.84
2022-11-24T22:44:11.024Z,94637.25
2022-11-24T22:46:54.112Z,94638.63
2022-11-24T22:49:37.112Z,94630.72
2022-11-24T22:52:20.196Z,94637.84
2022-11-24T22:55:04.824Z,94638.22
2022-11-24T22:57:48.532Z,94636.44
2022-11-24T23:00:32.052Z,94640.03
2022-11-24T23:03:15.205Z,94649.34
2022-11-24T23:06:00.665Z,94648.97
2022-11-24T23:08:43.781Z,94659.25
2022-11-24T23:11:35.124Z,94658.06
2022-11-24T23:14:20.736Z,94668.78
2022-11-24T23:17:03.825Z,94671.38
2022-11-24T23:19:46.930Z,94676.31
2022-11-24T23:22:29.986Z,94667.81
2022-11-24T23:25:13.126Z,94673.94
2022-11-24T23:27:57.647Z,94670.56
2022-11-24T23:30:40.708Z,94669.78
2022-11-24T23:33:23.740Z,94679.91
2022-11-24T23:36:09.021Z,94672.34
2022-11-24T23:38:52.087Z,94675.72
2022-11-24T23:41:35.279Z,94677.50
2022-11-24T23:44:19.885Z,94667.59
2022-11-24T23:47:02.899Z,94682.66
2022-11-24T23:49:45.932Z,94678.31
2022-11-24T23:52:31.286Z,94684.03
2022-11-24T23:55:14.288Z,94675.34
2022-11-24T23:57:57.291Z,94669.97
